createdAt,value
2019-03-05T00:01:04.155Z,5.00
2019-03-05T00:03:33.773Z,4.80
2019-03-05T00:06:03.366Z,4.60
2019-03-05T00:08:32.973Z,4.50
2019-03-05T00:11:02.578Z,4.50
2019-03-05T00:13:32.173Z,4.40
2019-03-05T00:16:01.974Z,4.30
2019-03-05T00:18:31.586Z,4.20
2019-03-05T00:21:01.219Z,4.20
2019-03-05T00:23:52.793Z,4.20
2019-03-05T00:26:26.065Z,4.20
2019-03-05T00:29:26.013Z,4.30
2019-03-05T00:31:55.866Z,4.40
2019-03-05T00:35:03.622Z,4.40
2019-03-05T00:37:44.914Z,4.30
2019-03-05T00:40:35.795Z,4.30
2019-03-05T00:43:19.339Z,4.40
2019-03-05T00:46:28.714Z,4.40
2019-03-05T00:49:22.499Z,4.50
2019-03-05T00:52:35.079Z,4.50
2019-03-05T00:55:57.741Z,4.30
2019-03-05T00:58:34.578Z,4.40
2019-03-05T01:01:38.585Z,4.40
2019-03-05T01:04:51.584Z,4.40
2019-03-05T01:07:21.177Z,4.40
2019-03-05T01:09:50.702Z,4.30
2019-03-05T01:12:21.176Z,4.30
2019-03-05T01:14:51.690Z,4.40
2019-03-05T01:17:21.366Z,4.40
2019-03-05T01:19:50.995Z,4.50
2019-03-05T01:22:20.599Z,4.50
2019-03-05T01:24:50.362Z,4.50
2019-03-05T01:27:19.979Z,4.40
2019-03-05T01:29:49.672Z,4.50
2019-03-05T01:32:41.826Z,4.40
2019-03-05T01:35:23.750Z,4.30
2019-03-05T01:37:53.398Z,4.20
2019-03-05T01:40:38.835Z,4.10
2019-03-05T01:43:08.485Z,4.00
2019-03-05T01:45:38.137Z,3.70
2019-03-05T01:48:07.687Z,3.80
2019-03-05T01:50:37.365Z,3.70
2019-03-05T01:53:07.056Z,3.60
2019-03-05T01:55:36.646Z,3.50
2019-03-05T01:58:06.271Z,3.50
2019-03-05T02:00:36.070Z,3.40
2019-03-05T02:03:05.684Z,3.50
2019-03-05T02:05:35.305Z,3.60
2019-03-05T02:08:04.978Z,3.60
2019-03-05T02:10:34.526Z,3.50
2019-03-05T02:13:04.100Z,3.50
2019-03-05T02:15:33.690Z,3.40
2019-03-05T02:18:03.279Z,3.50
2019-03-05T02:20:32.926Z,3.50
2019-03-05T02:23:27.019Z,3.50
2019-03-05T02:26:19.479Z,3.60
2019-03-05T02:29:05.160Z,3.60
2019-03-05T02:32:21.758Z,3.70
2019-03-05T02:35:37.553Z,3.70
2019-03-05T02:39:04.083Z,3.70
2019-03-05T02:42:07.517Z,3.70
2019-03-05T02:45:05.054Z,3.80
2019-03-05T02:48:27.778Z,3.90
2019-03-05T02:51:34.106Z,3.90
2019-03-05T02:54:53.974Z,3.90
2019-03-05T02:57:21.855Z,3.90
2019-03-05T02:59:51.398Z,4.00
2019-03-05T03:02:55.254Z,4.10
2019-03-05T03:05:38.456Z,4.10
2019-03-05T03:08:08.054Z,4.10
2019-03-05T03:10:37.751Z,4.10
2019-03-05T03:13:07.369Z,4.00
2019-03-05T03:15:37.015Z,4.10
2019-03-05T03:18:06.603Z,4.20
2019-03-05T03:20:36.195Z,4.20
2019-03-05T03:23:05.825Z,4.20
2019-03-05T03:25:35.419Z,4.10
2019-03-05T03:28:04.986Z,4.10
2019-03-05T03:30:34.812Z,4.10
2019-03-05T03:33:04.387Z,4.00
2019-03-05T03:35:34.015Z,4.00
2019-03-05T03:38:03.644Z,4.00
2019-03-05T03:40:33.391Z,4.10
2019-03-05T03:43:03.001Z,4.10
2019-03-05T03:45:32.613Z,4.00
2019-03-05T03:48:02.240Z,4.10
2019-03-05T03:50:31.836Z,4.10
2019-03-05T03:53:01.484Z,4.10
2019-03-05T03:55:31.214Z,4.10
2019-03-05T03:58:00.871Z,4.10
2019-03-05T04:00:30.495Z,4.10
2019-03-05T04:03:00.080Z,4.10
2019-03-05T04:05:29.690Z,4.00
2019-03-05T04:07:59.298Z,4.00
2019-03-05T04:10:28.897Z,4.10
2019-03-05T04:12:58.475Z,4.20
2019-03-05T04:15:28.155Z,4.10
2019-03-05T04:17:57.767Z,4.10
2019-03-05T04:20:42.572Z,4.00
2019-03-05T04:23:12.182Z,4.00
2019-03-05T04:25:41.782Z,4.00
2019-03-05T04:28:11.371Z,4.00
2019-03-05T04:30:41.030Z,4.00
2019-03-05T04:33:10.659Z,4.00
2019-03-05T04:35:40.282Z,4.10
2019-03-05T04:38:09.897Z,4.10
2019-03-05T04:40:39.508Z,4.00
2019-03-05T04:43:09.158Z,4.00
2019-03-05T04:45:56.676Z,4.00
2019-03-05T04:48:26.284Z,4.00
2019-03-05T04:50:59.153Z,4.00
2019-03-05T04:53:28.827Z,4.00
2019-03-05T04:55:58.451Z,4.00
2019-03-05T04:58:28.067Z,4.10
2019-03-05T05:00:57.758Z,4.10
2019-03-05T05:03:27.385Z,4.10
2019-03-05T05:05:56.988Z,4.50
2019-03-05T05:08:26.650Z,4.90
2019-03-05T05:10:56.298Z,5.20
2019-03-05T05:13:25.900Z,5.40
2019-03-05T05:15:55.597Z,5.50
2019-03-05T05:18:25.203Z,5.50
2019-03-05T05:20:54.817Z,5.30
2019-03-05T05:23:24.463Z,5.20
2019-03-05T05:25:54.046Z,5.10
2019-03-05T05:28:23.709Z,4.90
2019-03-05T05:30:53.341Z,4.90
2019-03-05T05:33:22.905Z,4.90
2019-03-05T05:35:52.537Z,4.80
2019-03-05T05:38:22.131Z,4.80
2019-03-05T05:40:51.833Z,4.80
2019-03-05T05:43:30.034Z,4.60
2019-03-05T05:45:59.604Z,4.40
2019-03-05T05:48:29.225Z,4.20
2019-03-05T05:50:58.825Z,4.10
2019-03-05T05:53:28.687Z,4.10
2019-03-05T05:55:58.432Z,4.00
2019-03-05T05:58:28.141Z,4.10
2019-03-05T06:00:59.902Z,4.20
2019-03-05T06:03:29.527Z,4.20
2019-03-05T06:05:59.200Z,4.20
2019-03-05T06:08:28.896Z,4.20
2019-03-05T06:10:58.469Z,4.20
2019-03-05T06:13:28.235Z,4.20
2019-03-05T06:15:57.918Z,4.20
2019-03-05T06:18:27.528Z,4.10
2019-03-05T06:20:57.164Z,4.10
2019-03-05T06:23:26.791Z,4.10
2019-03-05T06:25:56.406Z,4.10
2019-03-05T06:28:26.065Z,4.10
2019-03-05T06:30:55.703Z,4.00
2019-03-05T06:33:25.308Z,3.90
2019-03-05T06:35:54.920Z,3.90
2019-03-05T06:38:24.501Z,3.90
2019-03-05T06:40:54.181Z,3.80
2019-03-05T06:43:23.868Z,3.90
2019-03-05T06:45:53.514Z,4.00
2019-03-05T06:48:23.165Z,4.00
2019-03-05T06:50:52.823Z,3.90
2019-03-05T06:53:22.462Z,3.90
2019-03-05T06:55:52.102Z,3.90
2019-03-05T06:58:21.761Z,3.90
2019-03-05T07:00:51.397Z,3.90
2019-03-05T07:03:21.038Z,3.90
2019-03-05T07:06:26.450Z,3.90
2019-03-05T07:09:00.839Z,4.00
2019-03-05T07:12:12.329Z,4.00
2019-03-05T07:14:59.343Z,4.10
2019-03-05T07:17:49.893Z,4.10
2019-03-05T07:20:59.805Z,4.10
2019-03-05T07:24:16.211Z,4.10
2019-03-05T07:26:45.826Z,4.20
2019-03-05T07:29:18.013Z,4.20
2019-03-05T07:31:46.714Z,4.30
2019-03-05T07:34:23.507Z,4.40
2019-03-05T07:36:53.119Z,4.50
2019-03-05T07:39:24.021Z,4.50
2019-03-05T07:41:53.594Z,4.60
2019-03-05T07:44:23.179Z,4.60
2019-03-05T07:46:52.781Z,4.60
2019-03-05T07:49:22.356Z,4.60
2019-03-05T07:51:52.033Z,4.70
2019-03-05T07:54:21.653Z,4.70
2019-03-05T07:56:51.255Z,4.70
2019-03-05T07:59:20.969Z,4.80
2019-03-05T08:01:50.576Z,4.80
2019-03-05T08:04:20.213Z,4.70
2019-03-05T08:06:49.910Z,4.80
2019-03-05T08:09:44.368Z,4.80
2019-03-05T08:13:07.016Z,4.80
2019-03-05T08:16:33.114Z,4.80
2019-03-05T08:19:02.723Z,4.80
2019-03-05T08:21:32.383Z,4.80
2019-03-05T08:24:01.989Z,4.90
2019-03-05T08:26:31.592Z,5.00
2019-03-05T08:29:02.968Z,5.20
2019-03-05T08:31:32.471Z,5.30
2019-03-05T08:34:02.031Z,5.30
2019-03-05T08:36:31.670Z,5.40
2019-03-05T08:39:01.284Z,5.50
2019-03-05T08:41:30.919Z,5.50
2019-03-05T08:44:00.562Z,5.50
2019-03-05T08:46:30.182Z,5.60
2019-03-05T08:48:59.792Z,5.60
2019-03-05T08:51:29.410Z,5.70
2019-03-05T08:53:59.035Z,5.80
2019-03-05T08:56:28.641Z,5.90
2019-03-05T08:58:58.242Z,6.00
2019-03-05T09:01:27.875Z,6.10
2019-03-05T09:03:57.476Z,6.20
2019-03-05T09:06:27.084Z,6.20
2019-03-05T09:08:56.694Z,6.20
2019-03-05T09:11:26.521Z,6.30
2019-03-05T09:13:56.109Z,6.30
2019-03-05T09:16:25.731Z,6.40
2019-03-05T09:18:55.308Z,6.50
2019-03-05T09:21:24.965Z,6.50
2019-03-05T09:23:54.589Z,6.60
2019-03-05T09:26:24.217Z,6.70
2019-03-05T09:28:53.783Z,6.80
2019-03-05T09:31:23.421Z,6.90
2019-03-05T09:33:53.074Z,6.90
2019-03-05T09:36:22.682Z,7.00
2019-03-05T09:38:52.253Z,7.10
2019-03-05T09:41:22.202Z,7.30
2019-03-05T09:43:51.801Z,7.30
2019-03-05T09:46:21.344Z,7.30
2019-03-05T09:48:50.955Z,7.30
2019-03-05T09:51:20.532Z,7.40
2019-03-05T09:53:50.129Z,7.50
2019-03-05T09:56:19.912Z,7.40
2019-03-05T09:58:49.489Z,7.50
2019-03-05T10:01:19.424Z,7.60
2019-03-05T10:03:49.048Z,7.70
2019-03-05T10:06:18.644Z,7.70
2019-03-05T10:08:48.258Z,7.70
2019-03-05T10:11:17.886Z,7.70
2019-03-05T10:13:47.490Z,7.90
2019-03-05T10:16:17.113Z,7.90
2019-03-05T10:18:46.751Z,8.00
2019-03-05T10:21:17.571Z,8.10
2019-03-05T10:23:47.140Z,8.20
2019-03-05T10:26:18.629Z,8.30
2019-03-05T10:28:48.127Z,8.50
2019-03-05T10:31:18.789Z,8.50
2019-03-05T10:33:48.945Z,8.50
2019-03-05T10:36:18.654Z,8.70
2019-03-05T10:38:56.931Z,8.70
2019-03-05T10:41:19.632Z,8.80
2019-03-05T10:43:50.227Z,8.90
2019-03-05T10:46:19.794Z,9.00
2019-03-05T10:48:49.449Z,9.20
2019-03-05T10:51:19.074Z,9.40
2019-03-05T10:53:48.674Z,9.50
2019-03-05T10:56:18.465Z,9.50
2019-03-05T10:58:48.054Z,9.60
2019-03-05T11:01:17.978Z,9.60
2019-03-05T11:03:47.649Z,9.80
2019-03-05T11:06:17.268Z,10.00
2019-03-05T11:08:46.837Z,10.10
2019-03-05T11:11:16.475Z,10.40
2019-03-05T11:13:46.188Z,10.60
2019-03-05T11:16:15.874Z,10.70
2019-03-05T11:18:45.532Z,10.80
2019-03-05T11:21:15.266Z,11.00
2019-03-05T11:23:44.874Z,11.30
2019-03-05T11:26:14.492Z,11.60
2019-03-05T11:28:44.140Z,11.90
2019-03-05T11:31:13.744Z,12.00
2019-03-05T11:33:43.390Z,12.20
2019-03-05T11:36:13.007Z,12.40
2019-03-05T11:38:42.587Z,12.60
2019-03-05T11:41:12.308Z,12.80
2019-03-05T11:43:41.911Z,12.80
2019-03-05T11:46:16.518Z,13.00
2019-03-05T11:48:46.180Z,13.20
2019-03-05T11:51:15.780Z,13.50
2019-03-05T11:53:45.406Z,13.70
2019-03-05T11:56:15.009Z,14.00
2019-03-05T11:58:44.653Z,14.20
2019-03-05T12:01:18.270Z,14.40
2019-03-05T12:03:48.073Z,14.60
2019-03-05T12:06:17.682Z,14.70
2019-03-05T12:08:47.348Z,14.80
2019-03-05T12:11:16.978Z,15.00
2019-03-05T12:13:46.639Z,15.10
2019-03-05T12:16:16.547Z,15.30
2019-03-05T12:18:46.162Z,15.40
2019-03-05T12:21:15.778Z,15.50
2019-03-05T12:23:47.225Z,15.60
2019-03-05T12:26:16.693Z,15.80
2019-03-05T12:28:46.358Z,15.70
2019-03-05T12:31:16.011Z,16.10
2019-03-05T12:33:45.631Z,16.40
2019-03-05T12:36:15.254Z,16.90
2019-03-05T12:38:46.251Z,17.20
2019-03-05T12:41:16.133Z,17.30
2019-03-05T12:43:45.777Z,17.50
2019-03-05T12:46:15.562Z,17.80
2019-03-05T12:48:45.168Z,18.00
2019-03-05T12:51:14.919Z,18.30
2019-03-05T12:53:44.528Z,18.40
2019-03-05T12:56:23.390Z,18.50
2019-03-05T12:58:45.496Z,18.80
2019-03-05T13:01:15.156Z,18.90
2019-03-05T13:03:44.862Z,18.80
2019-03-05T13:06:14.491Z,18.90
2019-03-05T13:08:44.115Z,18.90
2019-03-05T13:11:14.499Z,18.90
2019-03-05T13:13:47.517Z,18.80
2019-03-05T13:16:15.510Z,19.00
2019-03-05T13:18:45.131Z,19.50
2019-03-05T13:21:14.873Z,19.60
2019-03-05T13:23:44.512Z,19.90
2019-03-05T13:26:14.107Z,20.00
2019-03-05T13:28:43.688Z,20.40
2019-03-05T13:31:13.392Z,20.40
2019-03-05T13:33:43.021Z,20.50
2019-03-05T13:36:13.563Z,20.60
2019-03-05T13:38:45.202Z,20.90
2019-03-05T13:41:15.571Z,21.10
2019-03-05T13:43:46.145Z,21.30
2019-03-05T13:46:15.806Z,21.40
2019-03-05T13:49:08.933Z,21.60
2019-03-05T13:52:13.697Z,21.80
2019-03-05T13:55:30.580Z,22.00
2019-03-05T13:58:38.604Z,22.10
2019-03-05T14:01:08.772Z,22.70
2019-03-05T14:03:46.578Z,22.70
2019-03-05T14:07:00.295Z,22.70
2019-03-05T14:09:28.527Z,22.30
2019-03-05T14:11:58.161Z,21.70
2019-03-05T14:14:29.474Z,21.70
2019-03-05T14:17:19.415Z,21.50
2019-03-05T14:19:49.195Z,21.10
2019-03-05T14:22:18.807Z,20.90
2019-03-05T14:24:48.498Z,21.20
2019-03-05T14:27:18.208Z,21.40
2019-03-05T14:29:47.858Z,21.40
2019-03-05T14:32:17.528Z,21.20
2019-03-05T14:35:01.773Z,20.90
2019-03-05T14:37:32.838Z,21.00
2019-03-05T14:40:23.018Z,21.20
2019-03-05T14:42:34.535Z,20.90
2019-03-05T14:45:04.325Z,20.40
2019-03-05T14:47:33.972Z,20.10
2019-03-05T14:50:03.634Z,19.70
2019-03-05T14:52:33.288Z,19.30
2019-03-05T14:55:02.925Z,19.10
2019-03-05T14:57:32.669Z,19.10
2019-03-05T15:00:02.353Z,19.00
2019-03-05T15:02:32.027Z,18.90
2019-03-05T15:05:01.612Z,19.00
2019-03-05T15:07:31.286Z,19.20
2019-03-05T15:10:00.902Z,19.50
2019-03-05T15:12:30.564Z,19.90
2019-03-05T15:15:00.383Z,20.10
2019-03-05T15:17:30.067Z,20.20
2019-03-05T15:19:59.704Z,20.20
2019-03-05T15:22:29.437Z,20.20
2019-03-05T15:24:59.035Z,20.00
2019-03-05T15:27:28.711Z,19.90
2019-03-05T15:29:58.343Z,19.70
2019-03-05T15:32:28.008Z,19.70
2019-03-05T15:34:57.586Z,19.60
2019-03-05T15:37:27.242Z,19.60
2019-03-05T15:39:56.821Z,19.50
2019-03-05T15:42:28.738Z,19.50
2019-03-05T15:44:57.731Z,19.50
2019-03-05T15:47:27.242Z,19.40
2019-03-05T15:49:56.877Z,19.30
2019-03-05T15:52:26.591Z,19.20
2019-03-05T15:54:56.183Z,19.00
2019-03-05T15:57:26.395Z,18.80
2019-03-05T15:59:56.289Z,18.60
2019-03-05T16:02:25.925Z,18.30
2019-03-05T16:04:55.523Z,18.00
2019-03-05T16:07:25.232Z,17.80
2019-03-05T16:09:54.868Z,17.70
2019-03-05T16:12:24.462Z,17.60
2019-03-05T16:14:54.143Z,17.50
2019-03-05T16:17:24.143Z,17.30
2019-03-05T16:19:55.024Z,17.10
2019-03-05T16:22:24.981Z,16.80
2019-03-05T16:24:54.584Z,16.70
2019-03-05T16:27:24.272Z,16.60
2019-03-05T16:29:55.727Z,16.40
2019-03-05T16:32:40.189Z,16.30
2019-03-05T16:35:28.774Z,16.10
2019-03-05T16:38:26.582Z,15.90
2019-03-05T16:41:03.525Z,15.70
2019-03-05T16:43:52.404Z,15.40
2019-03-05T16:46:44.259Z,15.10
2019-03-05T16:49:30.199Z,14.90
2019-03-05T16:52:18.755Z,14.70
2019-03-05T16:55:11.088Z,14.50
2019-03-05T16:58:08.661Z,14.40
2019-03-05T17:01:06.285Z,14.20
2019-03-05T17:03:55.467Z,14.10
2019-03-05T17:06:40.272Z,13.70
2019-03-05T17:09:31.915Z,13.40
2019-03-05T17:12:01.702Z,13.20
2019-03-05T17:14:31.693Z,13.10
2019-03-05T17:17:01.573Z,13.00
2019-03-05T17:19:31.162Z,12.90
2019-03-05T17:22:01.187Z,12.80
2019-03-05T17:24:30.818Z,12.70
2019-03-05T17:27:00.446Z,12.60
2019-03-05T17:29:30.075Z,12.50
2019-03-05T17:31:59.737Z,12.40
2019-03-05T17:34:29.307Z,12.30
2019-03-05T17:36:58.966Z,12.30
2019-03-05T17:39:29.207Z,12.10
2019-03-05T17:41:58.863Z,11.90
2019-03-05T17:44:28.454Z,11.70
2019-03-05T17:46:58.116Z,11.50
2019-03-05T17:49:27.763Z,11.50
2019-03-05T17:51:57.386Z,11.40
2019-03-05T17:54:27.070Z,11.20
2019-03-05T17:56:56.857Z,11.10
2019-03-05T17:59:26.490Z,10.90
2019-03-05T18:01:56.234Z,10.80
2019-03-05T18:04:26.056Z,10.70
2019-03-05T18:06:55.718Z,10.60
2019-03-05T18:09:25.430Z,10.50
2019-03-05T18:11:55.157Z,10.30
2019-03-05T18:14:24.728Z,10.20
2019-03-05T18:16:54.375Z,10.20
2019-03-05T18:19:24.240Z,10.10
2019-03-05T18:21:53.890Z,10.10
2019-03-05T18:24:23.557Z,10.00
2019-03-05T18:26:53.176Z,9.90
2019-03-05T18:29:22.838Z,9.80
2019-03-05T18:31:52.782Z,9.70
2019-03-05T18:34:22.374Z,9.70
2019-03-05T18:36:52.022Z,9.60
2019-03-05T18:39:21.729Z,9.50
2019-03-05T18:41:52.391Z,9.50
2019-03-05T18:44:21.915Z,9.30
2019-03-05T18:46:51.531Z,9.30
2019-03-05T18:49:21.135Z,9.30
2019-03-05T18:51:50.841Z,9.20
2019-03-05T18:54:20.705Z,9.10
2019-03-05T18:56:50.323Z,9.10
2019-03-05T18:59:20.020Z,9.00
2019-03-05T19:01:49.708Z,8.80
2019-03-05T19:04:19.304Z,8.80
2019-03-05T19:06:49.124Z,8.80
2019-03-05T19:09:20.180Z,8.80
2019-03-05T19:11:49.828Z,8.70
2019-03-05T19:14:19.554Z,8.60
2019-03-05T19:16:49.320Z,8.60
2019-03-05T19:19:19.017Z,8.50
2019-03-05T19:21:48.624Z,8.30
2019-03-05T19:24:18.328Z,8.30
2019-03-05T19:26:47.940Z,8.20
2019-03-05T19:29:17.848Z,8.20
2019-03-05T19:31:47.504Z,8.00
2019-03-05T19:34:17.094Z,8.00
2019-03-05T19:36:46.700Z,7.90
2019-03-05T19:39:16.792Z,7.60
2019-03-05T19:41:55.651Z,7.30
2019-03-05T19:44:17.664Z,7.10
2019-03-05T19:46:47.304Z,6.90
2019-03-05T19:49:16.894Z,6.80
2019-03-05T19:51:46.553Z,6.80
2019-03-05T19:54:16.374Z,6.80
2019-03-05T19:56:45.981Z,6.80
2019-03-05T19:59:15.903Z,6.70
2019-03-05T20:01:48.375Z,6.60
2019-03-05T20:04:18.114Z,6.60
2019-03-05T20:06:47.717Z,6.60
2019-03-05T20:09:24.394Z,6.50
2019-03-05T20:11:54.006Z,6.50
2019-03-05T20:14:25.379Z,6.50
2019-03-05T20:16:55.935Z,6.50
2019-03-05T20:19:25.499Z,6.30
2019-03-05T20:21:55.167Z,6.20
2019-03-05T20:24:24.843Z,6.10
2019-03-05T20:26:54.565Z,6.00
2019-03-05T20:29:24.189Z,6.00
2019-03-05T20:31:53.962Z,5.90
2019-03-05T20:34:23.577Z,5.80
2019-03-05T20:36:53.237Z,5.70
2019-03-05T20:39:23.029Z,5.60
2019-03-05T20:41:52.625Z,5.60
2019-03-05T20:44:22.196Z,5.50
2019-03-05T20:46:51.858Z,5.40
2019-03-05T20:49:21.490Z,5.30
2019-03-05T20:51:51.079Z,5.30
2019-03-05T20:54:20.821Z,5.20
2019-03-05T20:56:50.461Z,5.00
2019-03-05T20:59:20.101Z,4.90
2019-03-05T21:01:50.227Z,4.90
2019-03-05T21:04:19.820Z,4.80
2019-03-05T21:06:49.536Z,4.70
2019-03-05T21:09:23.811Z,4.60
2019-03-05T21:11:53.702Z,4.40
2019-03-05T21:14:23.426Z,4.50
2019-03-05T21:16:53.583Z,4.40
2019-03-05T21:19:23.174Z,4.20
2019-03-05T21:21:52.820Z,4.20
2019-03-05T21:24:22.667Z,4.20
2019-03-05T21:26:52.300Z,4.30
2019-03-05T21:29:21.903Z,4.40
2019-03-05T21:31:51.533Z,4.40
2019-03-05T21:34:21.108Z,4.50
2019-03-05T21:36:50.711Z,4.50
2019-03-05T21:39:21.113Z,4.40
2019-03-05T21:41:50.722Z,4.50
2019-03-05T21:44:20.362Z,4.40
2019-03-05T21:46:50.028Z,4.40
2019-03-05T21:49:19.687Z,4.30
2019-03-05T21:51:49.445Z,4.30
2019-03-05T21:54:19.043Z,4.20
2019-03-05T21:56:48.650Z,4.20
2019-03-05T21:59:18.727Z,4.30
2019-03-05T22:01:48.357Z,4.40
2019-03-05T22:04:17.972Z,4.50
2019-03-05T22:06:47.575Z,4.70
2019-03-05T22:09:17.143Z,4.60
2019-03-05T22:11:46.763Z,4.50
2019-03-05T22:14:16.382Z,4.40
2019-03-05T22:16:46.215Z,4.40
2019-03-05T22:19:15.822Z,4.50
2019-03-05T22:21:45.419Z,4.60
2019-03-05T22:24:15.050Z,4.60
2019-03-05T22:26:44.684Z,4.60
2019-03-05T22:29:14.257Z,4.60
2019-03-05T22:31:43.942Z,4.60
2019-03-05T22:34:13.522Z,4.60
2019-03-05T22:36:43.156Z,4.60
2019-03-05T22:39:13.079Z,4.50
2019-03-05T22:41:42.703Z,4.40
2019-03-05T22:44:12.282Z,4.30
2019-03-05T22:46:42.130Z,4.20
2019-03-05T22:49:11.726Z,4.20
2019-03-05T22:51:41.341Z,4.10
2019-03-05T22:54:11.002Z,3.80
2019-03-05T22:56:40.658Z,3.80
2019-03-05T22:59:10.354Z,3.70
2019-03-05T23:01:42.034Z,3.70
2019-03-05T23:04:13.742Z,3.80
2019-03-05T23:06:43.689Z,3.70
2019-03-05T23:09:19.807Z,3.80
2019-03-05T23:11:49.474Z,3.80
2019-03-05T23:14:19.247Z,3.80
2019-03-05T23:16:48.917Z,3.80
2019-03-05T23:19:18.716Z,3.80
2019-03-05T23:21:48.355Z,3.90
2019-03-05T23:24:18.000Z,3.90
2019-03-05T23:26:47.675Z,3.90
2019-03-05T23:29:19.142Z,4.00
2019-03-05T23:31:48.985Z,4.00
2019-03-05T23:34:18.678Z,4.10
2019-03-05T23:36:48.291Z,4.00
2019-03-05T23:39:18.692Z,4.00
2019-03-05T23:41:48.418Z,4.00
2019-03-05T23:44:18.155Z,4.00
2019-03-05T23:46:47.911Z,3.70
2019-03-05T23:49:17.493Z,3.60
2019-03-05T23:51:47.068Z,3.50
2019-03-05T23:54:16.683Z,3.30
2019-03-05T23:56:46.294Z,3.20
2019-03-05T23:59:15.937Z,3.00
